Terminal Aerodrome Forecast
Issued by NWS Charleston, WV

Current Version | Previous Version | Graphics & Text | Print | Product List | Glossary On
Versions: 1 2 3 4 5 6 7 8 9 10 11 12 13 14 15 16 17 18 19 20 21 22
000
FTUS41 KRLX 241500 AAA
TAFHTS
TAF AMD
KHTS 241500Z 2415/2512 VRB05KT P6SM BKN007 BKN012 OVC025
     FM241700 11005KT 6SM BR OVC020
     FM242000 15007KT 3SM SHRA VCTS OVC015CB
     FM242300 18008KT 5SM SHRA OVC020
     FM250100 20007KT P6SM OVC020
     FM250500 21007KT P6SM BKN008=

USA.gov is the U.S. government's official web portal to all federal, state and local government web resources and services.